Time;durP1;ratioP1;P1;durP2;ratioP2;P2;SDS_P1;SDS_P2;PMS_P1;PMS_P2;Temp;Humidity;BMP_temperature;BMP_pressure;BME280_temperature;BME280_humidity;BME280_pressure;Samples;Min_cycle;Max_cycle;Signal;HPM_P1;HPM_P2
2024/01/24 00:02:12;;;;;;;;;;;5.60;99.90;;;;;;4866830;29;19915;-89
2024/01/24 00:04:37;;;;;;;;;;;5.60;99.90;;;;;;4881927;29;20039;-90
2024/01/24 00:07:03;;;;;;;;;;;5.70;99.90;;;;;;4880008;29;19927;-89
2024/01/24 00:09:31;;;;;;;;;;;5.70;99.90;;;;;;4877987;29;19912;-90
2024/01/24 00:11:57;;;;;;;;;;;5.70;99.90;;;;;;4879478;29;19944;-88
2024/01/24 00:14:23;;;;;;;;;;;5.70;99.90;;;;;;4866588;29;19920;-88
2024/01/24 00:16:48;;;;;;;;;;;5.70;99.90;;;;;;4865682;29;19916;-89
2024/01/24 00:19:14;;;;;;;;;;;5.70;99.90;;;;;;4865380;29;20393;-89
2024/01/24 00:21:39;;;;;;;;;;;5.70;99.90;;;;;;4881515;29;20440;-86
2024/01/24 00:24:05;;;;;;;;;;;5.80;99.90;;;;;;4864267;29;19963;-90
2024/01/24 00:26:31;;;;;;;;;;;5.80;99.90;;;;;;4881280;29;19979;-89
2024/01/24 00:28:57;;;;;;;;;;;5.90;99.90;;;;;;4865100;29;20003;-89
2024/01/24 00:31:22;;;;;;;;;;;5.90;99.90;;;;;;4864736;29;19967;-89
2024/01/24 00:33:48;;;;;;;;;;;6.00;99.90;;;;;;4865101;29;19916;-89
2024/01/24 00:36:14;;;;;;;;;;;5.90;99.90;;;;;;4880275;29;19915;-86
2024/01/24 00:38:40;;;;;;;;;;;5.90;99.90;;;;;;4864964;29;19977;-87
2024/01/24 00:41:05;;;;;;;;;;;6.00;99.90;;;;;;4865270;29;20402;-90
2024/01/24 00:43:31;;;;;;;;;;;6.00;99.90;;;;;;4865079;29;19919;-90
2024/01/24 00:45:56;;;;;;;;;;;6.10;99.90;;;;;;4864049;29;19931;-90
2024/01/24 00:48:22;;;;;;;;;;;6.10;99.90;;;;;;4864206;29;19996;-87
2024/01/24 00:50:51;;;;;;;;;;;6.10;99.90;;;;;;4864873;29;19919;-89
2024/01/24 00:53:19;;;;;;;;;;;6.10;99.90;;;;;;4864462;29;20722;-90
2024/01/24 00:55:45;;;;;;;;;;;6.10;99.90;;;;;;4879703;29;20019;-90
2024/01/24 00:58:11;;;;;;;;;;;6.20;99.90;;;;;;4865996;29;19916;-87
2024/01/24 01:00:37;;;;;;;;;;;6.10;99.90;;;;;;4864016;29;20444;-86
2024/01/24 01:03:03;;;;;;;;;;;6.20;99.90;;;;;;4865621;29;19912;-86
2024/01/24 01:05:28;;;;;;;;;;;6.20;99.90;;;;;;4865959;29;19920;-86
2024/01/24 01:07:54;;;;;;;;;;;6.20;99.90;;;;;;4868283;29;19927;-86
2024/01/24 01:10:20;;;;;;;;;;;6.30;99.90;;;;;;4870043;29;19916;-86
2024/01/24 01:12:46;;;;;;;;;;;6.30;99.90;;;;;;4869751;29;20283;-87
2024/01/24 01:15:11;;;;;;;;;;;6.30;99.90;;;;;;4889741;29;19937;-87
2024/01/24 01:17:37;;;;;;;;;;;6.30;99.90;;;;;;4865205;29;20009;-88
2024/01/24 01:20:04;;;;;;;;;;;6.30;99.90;;;;;;4865151;29;19912;-87
2024/01/24 01:22:39;;;;;;;;;;;6.30;99.90;;;;;;4864058;29;19916;-87
2024/01/24 01:25:04;;;;;;;;;;;6.30;99.90;;;;;;4863663;29;19915;-86
2024/01/24 01:27:30;;;;;;;;;;;6.30;99.90;;;;;;4863811;29;19926;-87
2024/01/24 01:29:56;;;;;;;;;;;6.30;99.90;;;;;;4864584;29;19924;-87
2024/01/24 01:32:21;;;;;;;;;;;6.40;99.90;;;;;;4864777;29;20376;-87
2024/01/24 01:34:47;;;;;;;;;;;6.40;99.90;;;;;;4864104;29;19912;-85
2024/01/24 01:37:12;;;;;;;;;;;6.40;99.90;;;;;;4864674;29;19923;-87
2024/01/24 01:39:38;;;;;;;;;;;6.40;99.90;;;;;;4864219;29;19920;-86
2024/01/24 01:42:04;;;;;;;;;;;6.40;99.90;;;;;;4864586;29;19959;-87
2024/01/24 01:44:29;;;;;;;;;;;6.40;99.90;;;;;;4864042;29;19916;-87
2024/01/24 01:46:55;;;;;;;;;;;6.40;99.90;;;;;;4880549;29;19920;-87
2024/01/24 01:49:21;;;;;;;;;;;6.50;99.90;;;;;;4863569;29;20392;-87
2024/01/24 01:51:47;;;;;;;;;;;6.60;99.90;;;;;;4864304;29;19926;-87
2024/01/24 01:54:14;;;;;;;;;;;6.60;99.90;;;;;;4863888;29;20015;-86
2024/01/24 01:56:40;;;;;;;;;;;6.60;99.90;;;;;;4863950;29;19916;-88
2024/01/24 01:59:06;;;;;;;;;;;6.60;99.90;;;;;;4863653;29;20031;-87
2024/01/24 02:01:32;;;;;;;;;;;6.70;99.90;;;;;;4863250;29;20325;-86
2024/01/24 02:03:58;;;;;;;;;;;6.70;99.90;;;;;;4863911;29;19968;-87
2024/01/24 02:06:24;;;;;;;;;;;6.60;99.90;;;;;;4878989;29;19924;-86
2024/01/24 02:08:50;;;;;;;;;;;6.70;99.90;;;;;;4863316;29;20427;-88
2024/01/24 02:11:16;;;;;;;;;;;6.70;99.90;;;;;;4880431;29;19912;-87
2024/01/24 02:13:42;;;;;;;;;;;6.70;99.90;;;;;;4866873;29;19920;-86
2024/01/24 02:16:09;;;;;;;;;;;6.70;99.90;;;;;;4866948;29;19923;-87
2024/01/24 02:18:34;;;;;;;;;;;6.80;99.90;;;;;;4866667;29;19966;-87
2024/01/24 02:21:00;;;;;;;;;;;6.80;99.90;;;;;;4866901;29;19975;-87
2024/01/24 02:23:26;;;;;;;;;;;6.80;99.90;;;;;;4867251;29;19927;-87
2024/01/24 02:25:52;;;;;;;;;;;6.90;99.90;;;;;;4866644;29;20284;-86
2024/01/24 02:28:18;;;;;;;;;;;6.90;99.90;;;;;;4867188;29;19945;-87
2024/01/24 02:30:44;;;;;;;;;;;6.90;99.90;;;;;;4867000;29;19916;-87
2024/01/24 02:33:10;;;;;;;;;;;6.90;99.90;;;;;;4867123;29;19966;-86
2024/01/24 02:35:36;;;;;;;;;;;6.90;99.90;;;;;;4867196;29;20348;-89
2024/01/24 02:38:01;;;;;;;;;;;7.00;99.90;;;;;;4867357;29;20306;-88
2024/01/24 02:40:27;;;;;;;;;;;7.00;99.90;;;;;;4883226;29;19958;-88
2024/01/24 02:42:53;;;;;;;;;;;7.00;99.90;;;;;;4883805;29;19978;-88
2024/01/24 02:45:19;;;;;;;;;;;7.00;99.90;;;;;;4867300;29;20280;-88
2024/01/24 02:47:44;;;;;;;;;;;7.00;99.90;;;;;;4867640;29;19919;-87
2024/01/24 02:50:10;;;;;;;;;;;7.00;99.90;;;;;;4866500;29;20046;-90
2024/01/24 02:52:36;;;;;;;;;;;7.10;99.90;;;;;;4868175;29;19912;-87
2024/01/24 02:55:01;;;;;;;;;;;7.10;99.90;;;;;;4867512;29;19923;-88
2024/01/24 02:57:27;;;;;;;;;;;7.10;99.90;;;;;;4883514;29;19923;-87
2024/01/24 02:59:52;;;;;;;;;;;7.10;99.90;;;;;;4865592;29;19952;-87
2024/01/24 03:02:18;;;;;;;;;;;7.10;99.90;;;;;;4865896;29;19959;-87
2024/01/24 03:04:44;;;;;;;;;;;7.10;99.90;;;;;;4866337;29;19923;-88
2024/01/24 03:07:09;;;;;;;;;;;7.20;99.90;;;;;;4882007;29;19920;-87
2024/01/24 03:09:35;;;;;;;;;;;7.20;99.90;;;;;;4866805;29;19943;-87
2024/01/24 03:12:00;;;;;;;;;;;7.20;99.90;;;;;;4866482;29;19923;-89
2024/01/24 03:14:26;;;;;;;;;;;7.30;99.90;;;;;;4851164;29;20364;-90
2024/01/24 03:16:51;;;;;;;;;;;7.30;99.90;;;;;;4866331;29;19923;-88
2024/01/24 03:19:17;;;;;;;;;;;7.30;99.90;;;;;;4867813;29;20006;-87
2024/01/24 03:21:43;;;;;;;;;;;7.30;99.90;;;;;;4884380;29;20404;-88
2024/01/24 03:24:08;;;;;;;;;;;7.30;99.90;;;;;;4867043;29;19912;-88
2024/01/24 03:26:34;;;;;;;;;;;7.40;99.90;;;;;;4866620;29;19920;-88
2024/01/24 03:28:59;;;;;;;;;;;7.30;99.90;;;;;;4866691;29;19997;-88
2024/01/24 03:31:25;;;;;;;;;;;7.40;99.90;;;;;;4867364;29;20642;-87
2024/01/24 03:33:51;;;;;;;;;;;7.40;99.90;;;;;;4867017;29;19915;-88
2024/01/24 03:36:16;;;;;;;;;;;7.40;99.90;;;;;;4867004;29;19916;-87
2024/01/24 03:38:43;;;;;;;;;;;7.50;99.90;;;;;;4883753;29;19915;-88
2024/01/24 03:41:09;;;;;;;;;;;7.50;99.90;;;;;;4866653;29;19970;-88
2024/01/24 03:43:38;;;;;;;;;;;7.50;99.90;;;;;;4865856;29;20021;-87
2024/01/24 03:46:03;;;;;;;;;;;7.50;99.90;;;;;;4865884;29;19998;-88
2024/01/24 03:48:29;;;;;;;;;;;7.60;99.90;;;;;;4866516;29;19916;-87
2024/01/24 03:50:54;;;;;;;;;;;7.60;99.90;;;;;;4866273;29;20328;-87
2024/01/24 03:53:20;;;;;;;;;;;7.60;99.90;;;;;;4866055;29;19912;-87
2024/01/24 03:55:46;;;;;;;;;;;7.60;99.90;;;;;;4865819;29;19919;-89
2024/01/24 03:58:11;;;;;;;;;;;7.70;99.90;;;;;;4865776;29;19926;-88
2024/01/24 04:00:37;;;;;;;;;;;7.70;99.90;;;;;;4882006;29;20333;-87
2024/01/24 04:03:02;;;;;;;;;;;7.70;99.90;;;;;;4866057;29;19919;-88
2024/01/24 04:05:28;;;;;;;;;;;7.80;99.90;;;;;;4866053;29;20261;-88
2024/01/24 04:07:54;;;;;;;;;;;7.80;99.90;;;;;;4865450;29;20010;-87
2024/01/24 04:10:19;;;;;;;;;;;7.80;99.90;;;;;;4865309;29;20313;-88
2024/01/24 04:12:45;;;;;;;;;;;7.80;99.90;;;;;;4880737;29;20404;-88
2024/01/24 04:15:11;;;;;;;;;;;7.80;99.90;;;;;;4866388;29;19912;-88
2024/01/24 04:17:36;;;;;;;;;;;7.80;99.90;;;;;;4865374;29;19920;-87
2024/01/24 04:20:05;;;;;;;;;;;7.90;99.90;;;;;;4865004;29;19984;-88
2024/01/24 04:22:31;;;;;;;;;;;7.90;99.90;;;;;;4865354;29;19916;-88
2024/01/24 04:24:57;;;;;;;;;;;7.90;99.90;;;;;;4881108;29;19935;-88
2024/01/24 04:27:23;;;;;;;;;;;7.90;99.90;;;;;;4864922;29;19920;-89
2024/01/24 04:29:48;;;;;;;;;;;8.00;99.90;;;;;;4865017;29;19964;-87
2024/01/24 04:32:14;;;;;;;;;;;8.00;99.90;;;;;;4865077;29;19944;-88
2024/01/24 04:34:40;;;;;;;;;;;7.90;99.90;;;;;;4864701;29;19979;-88
2024/01/24 04:37:06;;;;;;;;;;;8.00;99.90;;;;;;4865374;29;19962;-89
2024/01/24 04:39:31;;;;;;;;;;;8.00;99.90;;;;;;4865402;29;19915;-89
2024/01/24 04:41:57;;;;;;;;;;;8.10;99.90;;;;;;4865944;29;19959;-88
2024/01/24 04:44:23;;;;;;;;;;;8.00;99.90;;;;;;4865784;29;19919;-89
2024/01/24 04:46:48;;;;;;;;;;;8.10;99.90;;;;;;4866297;29;19927;-89
2024/01/24 04:49:14;;;;;;;;;;;8.10;99.90;;;;;;4881452;29;20011;-89
2024/01/24 04:51:40;;;;;;;;;;;8.20;99.90;;;;;;4865740;29;20534;-88
2024/01/24 04:54:06;;;;;;;;;;;8.20;99.90;;;;;;4865584;29;20022;-89
2024/01/24 04:56:33;;;;;;;;;;;8.10;99.90;;;;;;4865296;29;19988;-90
2024/01/24 04:58:59;;;;;;;;;;;8.10;99.90;;;;;;4881964;29;20291;-89
2024/01/24 05:01:24;;;;;;;;;;;8.10;99.90;;;;;;4865608;29;20018;-89
2024/01/24 05:03:50;;;;;;;;;;;8.20;99.90;;;;;;4865712;29;19900;-88
2024/01/24 05:06:16;;;;;;;;;;;8.20;99.90;;;;;;4850393;29;19937;-89
2024/01/24 05:08:41;;;;;;;;;;;8.20;99.90;;;;;;4865516;29;20276;-88
2024/01/24 05:11:07;;;;;;;;;;;8.20;99.90;;;;;;4865710;29;19916;-88
2024/01/24 05:13:33;;;;;;;;;;;8.30;99.90;;;;;;4865307;29;19920;-87
2024/01/24 05:15:58;;;;;;;;;;;8.30;99.90;;;;;;4865921;29;19916;-88
2024/01/24 05:18:24;;;;;;;;;;;8.30;99.90;;;;;;4850683;29;20281;-88
2024/01/24 05:20:50;;;;;;;;;;;8.40;99.90;;;;;;4865980;29;20324;-89
2024/01/24 05:23:15;;;;;;;;;;;8.40;99.90;;;;;;4865707;29;19916;-89
2024/01/24 05:25:42;;;;;;;;;;;8.40;99.90;;;;;;4865320;29;19920;-89
2024/01/24 05:28:11;;;;;;;;;;;8.40;99.90;;;;;;4865434;29;19916;-89
2024/01/24 05:30:37;;;;;;;;;;;8.40;99.90;;;;;;4880832;29;19926;-88
2024/01/24 05:33:03;;;;;;;;;;;8.40;99.90;;;;;;4865320;29;19920;-88
2024/01/24 05:35:28;;;;;;;;;;;8.40;99.90;;;;;;4865006;29;19916;-87
2024/01/24 05:37:57;;;;;;;;;;;8.50;99.90;;;;;;4866152;29;19916;-89
2024/01/24 05:40:23;;;;;;;;;;;8.50;99.90;;;;;;4865408;29;19991;-89
2024/01/24 05:42:49;;;;;;;;;;;8.60;99.90;;;;;;4881491;29;19978;-89
2024/01/24 05:45:15;;;;;;;;;;;8.60;99.90;;;;;;4865279;29;19970;-90
2024/01/24 05:47:42;;;;;;;;;;;8.60;99.90;;;;;;4869470;29;20376;-89
2024/01/24 05:50:14;;;;;;;;;;;8.70;99.90;;;;;;4884172;29;20006;-89
2024/01/24 05:52:40;;;;;;;;;;;8.80;99.90;;;;;;4876068;29;19978;-88
2024/01/24 05:55:06;;;;;;;;;;;8.80;99.90;;;;;;4870284;29;19915;-89
2024/01/24 05:57:32;;;;;;;;;;;8.80;99.90;;;;;;4868687;29;20262;-89
2024/01/24 05:59:58;;;;;;;;;;;8.80;99.90;;;;;;4867399;29;20300;-88
2024/01/24 06:02:23;;;;;;;;;;;8.70;99.90;;;;;;4868993;29;19927;-88
2024/01/24 06:04:49;;;;;;;;;;;8.60;99.90;;;;;;4868240;29;20007;-87
2024/01/24 06:07:14;;;;;;;;;;;8.50;99.90;;;;;;4867801;29;20612;-88
2024/01/24 06:09:40;;;;;;;;;;;8.50;99.90;;;;;;4868448;29;19916;-90
2024/01/24 06:12:06;;;;;;;;;;;8.40;99.90;;;;;;4868446;29;19915;-88
2024/01/24 06:14:31;;;;;;;;;;;8.40;99.90;;;;;;4868444;29;19923;-90
2024/01/24 06:16:57;;;;;;;;;;;8.40;99.90;;;;;;4867711;29;19920;-89
2024/01/24 06:19:22;;;;;;;;;;;8.40;99.90;;;;;;4868857;29;20276;-89
2024/01/24 06:21:48;;;;;;;;;;;8.40;99.90;;;;;;4868430;29;19923;-89
2024/01/24 06:24:14;;;;;;;;;;;8.30;99.90;;;;;;4868983;29;19920;-89
2024/01/24 06:26:39;;;;;;;;;;;8.40;99.90;;;;;;4868474;29;20366;-90
2024/01/24 06:29:05;;;;;;;;;;;8.40;99.90;;;;;;4868565;29;19916;-88
2024/01/24 06:31:30;;;;;;;;;;;8.40;99.90;;;;;;4869375;29;20372;-88
2024/01/24 06:33:56;;;;;;;;;;;8.40;99.90;;;;;;4869315;29;19908;-88
2024/01/24 06:36:22;;;;;;;;;;;8.50;99.90;;;;;;4868966;29;19975;-89
2024/01/24 06:38:47;;;;;;;;;;;8.50;99.90;;;;;;4868491;29;19926;-89
2024/01/24 06:41:13;;;;;;;;;;;8.60;99.90;;;;;;4882649;29;19940;-88
2024/01/24 06:43:41;;;;;;;;;;;8.60;99.90;;;;;;4867146;29;19916;-89
2024/01/24 06:46:08;;;;;;;;;;;8.60;99.90;;;;;;4867780;29;19927;-88
2024/01/24 06:48:34;;;;;;;;;;;8.60;99.90;;;;;;4867207;29;20068;-88
2024/01/24 06:51:00;;;;;;;;;;;8.60;99.90;;;;;;4867244;29;19995;-88
2024/01/24 06:53:26;;;;;;;;;;;8.70;99.90;;;;;;4867704;29;19920;-90
2024/01/24 06:55:51;;;;;;;;;;;8.70;99.90;;;;;;4867827;29;19939;-89
2024/01/24 06:58:17;;;;;;;;;;;8.80;99.90;;;;;;4850960;29;19919;-88
2024/01/24 07:00:43;;;;;;;;;;;8.70;99.90;;;;;;4867300;29;20173;-88
2024/01/24 07:03:09;;;;;;;;;;;8.80;99.90;;;;;;4867264;29;20409;-88
2024/01/24 07:05:34;;;;;;;;;;;8.90;99.90;;;;;;4882223;29;19921;-87
2024/01/24 07:08:00;;;;;;;;;;;8.80;99.90;;;;;;4865582;29;19923;-86
2024/01/24 07:10:26;;;;;;;;;;;8.80;99.90;;;;;;4865871;29;20281;-86
2024/01/24 07:12:52;;;;;;;;;;;8.90;99.90;;;;;;4865514;29;19916;-88
2024/01/24 07:15:18;;;;;;;;;;;8.80;99.90;;;;;;4865448;29;19916;-87
2024/01/24 07:17:43;;;;;;;;;;;8.80;99.90;;;;;;4865564;29;19992;-88
2024/01/24 07:20:09;;;;;;;;;;;8.80;99.90;;;;;;4865772;29;19916;-88
2024/01/24 07:22:35;;;;;;;;;;;8.80;99.90;;;;;;4866426;29;19912;-86
2024/01/24 07:25:01;;;;;;;;;;;8.80;99.90;;;;;;4865867;29;19920;-86
2024/01/24 07:27:29;;;;;;;;;;;8.90;99.90;;;;;;4880755;29;19924;-87
2024/01/24 07:29:54;;;;;;;;;;;8.80;99.90;;;;;;4866225;29;19915;-87
2024/01/24 07:32:20;;;;;;;;;;;8.80;99.90;;;;;;4866690;29;20282;-87
2024/01/24 07:34:46;;;;;;;;;;;8.80;99.90;;;;;;4882590;29;19916;-89
2024/01/24 07:37:11;;;;;;;;;;;8.80;99.90;;;;;;4867415;29;19920;-87
2024/01/24 07:39:37;;;;;;;;;;;8.90;99.90;;;;;;4851413;29;19959;-88
2024/01/24 07:42:02;;;;;;;;;;;8.90;99.90;;;;;;4881566;29;19915;-87
2024/01/24 07:44:28;;;;;;;;;;;8.90;99.90;;;;;;4865596;29;19954;-87
2024/01/24 07:46:54;;;;;;;;;;;8.90;99.90;;;;;;4865241;29;19994;-88
2024/01/24 07:49:19;;;;;;;;;;;8.90;99.90;;;;;;4866510;29;20304;-88
2024/01/24 07:51:46;;;;;;;;;;;8.90;99.90;;;;;;4866101;29;19919;-86
2024/01/24 07:54:12;;;;;;;;;;;9.00;99.90;;;;;;4866440;29;20068;-87
2024/01/24 07:56:38;;;;;;;;;;;9.00;99.90;;;;;;4865613;29;19920;-88
2024/01/24 07:59:05;;;;;;;;;;;9.00;99.90;;;;;;4866034;29;20005;-87
2024/01/24 08:01:30;;;;;;;;;;;9.00;99.90;;;;;;4865846;29;19904;-88
2024/01/24 08:03:56;;;;;;;;;;;9.10;99.90;;;;;;4865156;29;19919;-88
2024/01/24 08:06:22;;;;;;;;;;;9.00;99.90;;;;;;4865526;29;20415;-87
2024/01/24 08:08:48;;;;;;;;;;;9.10;99.90;;;;;;4865087;29;19916;-88
2024/01/24 08:11:13;;;;;;;;;;;9.00;99.90;;;;;;4865503;29;19965;-87
2024/01/24 08:13:39;;;;;;;;;;;9.10;99.90;;;;;;4865731;29;20436;-87
2024/01/24 08:16:05;;;;;;;;;;;9.10;99.90;;;;;;4864748;29;19968;-88
2024/01/24 08:18:33;;;;;;;;;;;9.10;99.90;;;;;;4865446;29;19927;-87
2024/01/24 08:20:59;;;;;;;;;;;9.10;99.90;;;;;;4865903;29;20288;-88
2024/01/24 08:23:24;;;;;;;;;;;9.10;99.90;;;;;;4865413;29;19998;-87
2024/01/24 08:25:50;;;;;;;;;;;9.10;99.90;;;;;;4865378;29;20272;-87
2024/01/24 08:28:15;;;;;;;;;;;9.10;99.90;;;;;;4865325;29;19923;-87
2024/01/24 08:30:41;;;;;;;;;;;9.10;99.90;;;;;;4881117;29;20450;-88
2024/01/24 08:33:07;;;;;;;;;;;9.00;99.90;;;;;;4865274;29;20022;-86
2024/01/24 08:35:35;;;;;;;;;;;9.10;99.90;;;;;;4865628;29;19963;-88
2024/01/24 08:38:01;;;;;;;;;;;9.10;99.90;;;;;;4865346;29;20273;-87
2024/01/24 08:40:27;;;;;;;;;;;9.10;99.90;;;;;;4880223;29;19912;-87
2024/01/24 08:42:52;;;;;;;;;;;9.10;99.90;;;;;;4865459;29;20325;-87
2024/01/24 08:45:18;;;;;;;;;;;9.10;99.90;;;;;;4865002;29;19920;-87
2024/01/24 08:47:43;;;;;;;;;;;9.10;99.90;;;;;;4865206;29;19930;-87
2024/01/24 08:50:09;;;;;;;;;;;9.20;99.90;;;;;;4865378;29;20006;-88
2024/01/24 08:52:35;;;;;;;;;;;9.20;99.90;;;;;;4865077;29;19927;-87
2024/01/24 08:55:01;;;;;;;;;;;9.20;99.90;;;;;;4864858;29;20604;-87
2024/01/24 08:57:26;;;;;;;;;;;9.20;99.90;;;;;;4865506;29;19948;-87
2024/01/24 08:59:53;;;;;;;;;;;9.30;99.90;;;;;;4881881;29;20266;-87
2024/01/24 09:02:18;;;;;;;;;;;9.30;99.90;;;;;;4865471;29;19915;-86
2024/01/24 09:04:46;;;;;;;;;;;9.30;99.90;;;;;;4865559;29;19919;-88
2024/01/24 09:07:14;;;;;;;;;;;9.40;99.90;;;;;;4865445;29;19926;-88
2024/01/24 09:09:40;;;;;;;;;;;9.40;99.90;;;;;;4865402;29;19955;-87
2024/01/24 09:12:06;;;;;;;;;;;9.50;99.90;;;;;;4864759;29;19926;-87
2024/01/24 09:14:31;;;;;;;;;;;9.40;99.90;;;;;;4864342;29;19916;-86
2024/01/24 09:16:57;;;;;;;;;;;9.50;99.90;;;;;;4863885;29;19920;-87
2024/01/24 09:19:23;;;;;;;;;;;9.50;99.90;;;;;;4863837;29;19920;-86
2024/01/24 09:21:48;;;;;;;;;;;9.50;99.90;;;;;;4866429;29;19915;-86
2024/01/24 09:24:14;;;;;;;;;;;9.60;99.90;;;;;;4867386;29;19915;-86
2024/01/24 09:26:40;;;;;;;;;;;9.60;99.90;;;;;;4867571;29;19946;-86
2024/01/24 09:29:05;;;;;;;;;;;9.70;99.90;;;;;;4867558;29;19955;-86
2024/01/24 09:31:31;;;;;;;;;;;9.70;99.90;;;;;;4867569;29;19923;-86
2024/01/24 09:33:56;;;;;;;;;;;9.70;99.90;;;;;;4867806;29;20360;-86
2024/01/24 09:36:27;;;;;;;;;;;9.80;99.90;;;;;;4866718;29;20690;-86
2024/01/24 09:38:53;;;;;;;;;;;9.80;99.90;;;;;;4867036;29;20741;-86
2024/01/24 09:41:21;;;;;;;;;;;9.90;99.90;;;;;;4867370;29;19959;-87
2024/01/24 09:43:47;;;;;;;;;;;9.90;99.90;;;;;;4867844;29;20564;-87
2024/01/24 09:46:15;;;;;;;;;;;10.00;99.90;;;;;;4867698;29;19963;-86
2024/01/24 09:48:41;;;;;;;;;;;10.00;99.90;;;;;;4868832;29;19972;-87
2024/01/24 09:51:08;;;;;;;;;;;10.00;99.90;;;;;;4867574;29;19916;-87
2024/01/24 09:53:34;;;;;;;;;;;9.90;99.90;;;;;;4867789;29;19916;-87
2024/01/24 09:56:00;;;;;;;;;;;10.00;99.90;;;;;;4867278;29;19998;-86
2024/01/24 09:58:26;;;;;;;;;;;9.90;99.90;;;;;;4852079;29;19932;-87
2024/01/24 10:00:52;;;;;;;;;;;9.90;99.90;;;;;;4867961;29;19944;-86
2024/01/24 10:03:18;;;;;;;;;;;9.90;99.90;;;;;;4867930;29;19920;-87
2024/01/24 10:05:44;;;;;;;;;;;9.90;99.90;;;;;;4852301;29;19926;-86
2024/01/24 10:08:10;;;;;;;;;;;9.90;99.90;;;;;;4867064;29;20368;-87
2024/01/24 10:10:36;;;;;;;;;;;9.90;99.90;;;;;;4867782;29;20380;-87
2024/01/24 10:13:06;;;;;;;;;;;10.10;99.90;;;;;;4851914;29;19912;-87
2024/01/24 10:15:31;;;;;;;;;;;10.20;99.90;;;;;;4867518;29;19941;-87
2024/01/24 10:17:57;;;;;;;;;;;10.10;99.90;;;;;;4867260;29;19916;-86
2024/01/24 10:20:23;;;;;;;;;;;9.90;99.90;;;;;;4866805;29;19918;-87
2024/01/24 10:22:50;;;;;;;;;;;9.80;99.90;;;;;;4866864;29;20513;-85
2024/01/24 10:25:16;;;;;;;;;;;9.70;99.90;;;;;;4866511;29;19916;-84
2024/01/24 10:27:42;;;;;;;;;;;9.60;99.90;;;;;;4866026;29;20439;-86
2024/01/24 10:30:11;;;;;;;;;;;9.60;99.90;;;;;;4866967;29;19923;-86
2024/01/24 10:32:37;;;;;;;;;;;9.60;99.90;;;;;;4866326;29;19919;-86
2024/01/24 10:35:03;;;;;;;;;;;9.70;99.90;;;;;;4865516;29;19927;-86
2024/01/24 10:37:29;;;;;;;;;;;9.80;99.90;;;;;;4866154;29;19960;-87
2024/01/24 10:39:55;;;;;;;;;;;9.90;99.90;;;;;;4865869;29;20002;-88
2024/01/24 10:42:22;;;;;;;;;;;9.80;99.90;;;;;;4865869;29;19916;-86
2024/01/24 10:44:49;;;;;;;;;;;9.90;99.90;;;;;;4866593;29;19916;-86
2024/01/24 10:47:15;;;;;;;;;;;10.00;99.90;;;;;;4865732;29;19920;-87
2024/01/24 10:49:41;;;;;;;;;;;10.10;99.90;;;;;;4866960;29;19991;-85
2024/01/24 10:52:07;;;;;;;;;;;10.10;99.90;;;;;;4881679;29;19924;-86
2024/01/24 10:54:34;;;;;;;;;;;10.30;99.90;;;;;;4866915;29;20642;-86
2024/01/24 10:57:02;;;;;;;;;;;10.30;99.90;;;;;;4850505;29;19923;-86
2024/01/24 10:59:30;;;;;;;;;;;10.20;99.90;;;;;;4866354;29;20306;-86
2024/01/24 11:01:55;;;;;;;;;;;10.20;99.90;;;;;;4865179;29;19916;-86
2024/01/24 11:04:22;;;;;;;;;;;10.10;99.90;;;;;;4865892;29;19927;-85
2024/01/24 11:07:01;;;;;;;;;;;10.20;99.90;;;;;;4866641;29;19924;-86
2024/01/24 11:09:35;;;;;;;;;;;10.30;99.90;;;;;;4881897;29;20328;-87
2024/01/24 11:12:01;;;;;;;;;;;10.30;99.90;;;;;;4866154;29;19923;-86
2024/01/24 11:14:30;;;;;;;;;;;10.40;99.90;;;;;;4866159;29;19926;-86
2024/01/24 11:16:57;;;;;;;;;;;10.40;99.90;;;;;;4866132;29;20704;-86
2024/01/24 11:19:23;;;;;;;;;;;10.40;99.90;;;;;;4864853;29;19912;-86
2024/01/24 11:21:49;;;;;;;;;;;10.40;99.90;;;;;;4865590;29;19916;-87
2024/01/24 11:24:34;;;;;;;;;;;10.50;99.90;;;;;;4865792;29;20371;-87
2024/01/24 11:26:59;;;;;;;;;;;10.40;99.90;;;;;;4881029;29;20384;-87
2024/01/24 11:29:32;;;;;;;;;;;10.30;99.90;;;;;;4866110;29;19944;-87
2024/01/24 11:31:58;;;;;;;;;;;10.30;99.90;;;;;;4865913;29;20283;-86
2024/01/24 11:34:26;;;;;;;;;;;10.30;99.90;;;;;;4866978;29;19923;-86
2024/01/24 11:36:53;;;;;;;;;;;10.30;99.90;;;;;;4865913;29;19976;-87
2024/01/24 11:39:31;;;;;;;;;;;10.40;99.90;;;;;;4865873;29;19919;-87
2024/01/24 11:42:15;;;;;;;;;;;10.50;99.90;;;;;;4866191;29;19919;-88
2024/01/24 11:44:42;;;;;;;;;;;10.50;99.90;;;;;;4880938;29;19931;-86
2024/01/24 11:47:07;;;;;;;;;;;10.60;99.90;;;;;;4866162;29;20287;-87
2024/01/24 11:49:33;;;;;;;;;;;10.70;99.90;;;;;;4867590;29;20006;-87
2024/01/24 11:52:02;;;;;;;;;;;10.60;99.90;;;;;;4865813;29;19916;-86
2024/01/24 11:54:27;;;;;;;;;;;10.70;99.90;;;;;;4881394;29;20364;-87
2024/01/24 11:56:53;;;;;;;;;;;10.70;99.90;;;;;;4881010;29;19976;-86
2024/01/24 11:59:22;;;;;;;;;;;10.70;99.90;;;;;;4865265;29;20375;-86
2024/01/24 12:01:47;;;;;;;;;;;10.60;99.90;;;;;;4865183;29;19916;-87
2024/01/24 12:04:13;;;;;;;;;;;10.50;99.90;;;;;;4880873;29;19926;-86
2024/01/24 12:06:38;;;;;;;;;;;10.50;99.90;;;;;;4865355;29;19919;-85
2024/01/24 12:09:08;;;;;;;;;;;10.50;99.90;;;;;;4865612;29;19951;-87
2024/01/24 12:11:34;;;;;;;;;;;10.40;99.90;;;;;;4864747;29;20316;-86
2024/01/24 12:14:00;;;;;;;;;;;10.30;99.90;;;;;;4866033;29;19923;-86
2024/01/24 12:16:28;;;;;;;;;;;10.30;99.90;;;;;;4865811;29;19962;-86
2024/01/24 12:18:54;;;;;;;;;;;10.40;99.90;;;;;;4866376;29;20335;-89
2024/01/24 12:21:20;;;;;;;;;;;10.40;99.90;;;;;;4865662;29;19916;-86
2024/01/24 12:23:47;;;;;;;;;;;10.40;99.90;;;;;;4865507;29;19916;-85
2024/01/24 12:26:28;;;;;;;;;;;10.40;99.90;;;;;;4866181;29;20034;-86
2024/01/24 12:28:54;;;;;;;;;;;10.40;99.90;;;;;;4883254;29;20311;-86
2024/01/24 12:31:20;;;;;;;;;;;10.40;99.90;;;;;;4866984;29;19933;-86
2024/01/24 12:33:45;;;;;;;;;;;10.30;99.90;;;;;;4867039;29;20376;-85
2024/01/24 12:36:11;;;;;;;;;;;10.30;99.90;;;;;;4865814;29;20002;-86
2024/01/24 12:38:37;;;;;;;;;;;10.20;99.90;;;;;;4866202;29;19916;-86
2024/01/24 12:41:03;;;;;;;;;;;10.20;99.90;;;;;;4866224;29;19999;-86
2024/01/24 12:43:29;;;;;;;;;;;10.20;99.90;;;;;;4881192;29;20288;-86
2024/01/24 12:45:55;;;;;;;;;;;10.10;99.90;;;;;;4883050;29;19979;-86
2024/01/24 12:48:21;;;;;;;;;;;10.00;99.90;;;;;;4865241;29;19930;-86
2024/01/24 12:50:46;;;;;;;;;;;10.10;99.90;;;;;;4864937;29;19919;-88
2024/01/24 12:53:12;;;;;;;;;;;10.10;99.90;;;;;;4864481;29;20713;-86
2024/01/24 12:55:38;;;;;;;;;;;10.10;99.90;;;;;;4881054;29;19916;-86
2024/01/24 12:58:03;;;;;;;;;;;10.00;99.90;;;;;;4865259;29;20072;-86
2024/01/24 13:00:29;;;;;;;;;;;10.00;99.90;;;;;;4864731;29;19916;-86
2024/01/24 13:02:54;;;;;;;;;;;9.90;99.90;;;;;;4864630;29;19916;-86
2024/01/24 13:05:20;;;;;;;;;;;9.90;99.90;;;;;;4865054;29;19910;-87
2024/01/24 13:07:46;;;;;;;;;;;9.90;99.90;;;;;;4865106;29;20014;-85
2024/01/24 13:10:11;;;;;;;;;;;9.80;99.90;;;;;;4864305;29;19916;-87
2024/01/24 13:12:37;;;;;;;;;;;9.70;99.90;;;;;;4864152;29;20011;-87
2024/01/24 13:15:06;;;;;;;;;;;9.70;99.90;;;;;;4864142;29;19927;-87
2024/01/24 13:17:31;;;;;;;;;;;9.70;99.90;;;;;;4865243;29;19918;-87
2024/01/24 13:19:57;;;;;;;;;;;9.70;99.90;;;;;;4864671;29;19966;-88
2024/01/24 13:22:23;;;;;;;;;;;9.80;99.90;;;;;;4864298;29;20283;-87
2024/01/24 13:24:48;;;;;;;;;;;9.80;99.90;;;;;;4865222;29;19923;-87
2024/01/24 13:27:14;;;;;;;;;;;9.80;99.90;;;;;;4864433;29;19920;-88
2024/01/24 13:29:40;;;;;;;;;;;9.70;99.90;;;;;;4868281;29;19919;-86
2024/01/24 13:32:06;;;;;;;;;;;9.80;99.90;;;;;;4865455;29;19915;-86
2024/01/24 13:34:31;;;;;;;;;;;9.70;99.90;;;;;;4865957;29;20019;-87
2024/01/24 13:36:57;;;;;;;;;;;9.60;99.90;;;;;;4866037;29;19916;-86
2024/01/24 13:39:23;;;;;;;;;;;9.70;99.90;;;;;;4866254;29;19934;-86
2024/01/24 13:41:48;;;;;;;;;;;9.60;99.90;;;;;;4864546;29;19916;-87
2024/01/24 13:44:14;;;;;;;;;;;9.60;99.90;;;;;;4865155;29;20292;-86
2024/01/24 13:46:40;;;;;;;;;;;9.60;99.90;;;;;;4863688;29;20273;-86
2024/01/24 13:49:08;;;;;;;;;;;9.70;99.90;;;;;;4865574;29;19923;-86
2024/01/24 13:51:34;;;;;;;;;;;9.80;99.90;;;;;;4880590;29;19920;-86
2024/01/24 13:54:00;;;;;;;;;;;9.80;99.90;;;;;;4864816;29;19916;-87
2024/01/24 13:56:26;;;;;;;;;;;9.90;99.90;;;;;;4863569;29;19916;-87
2024/01/24 13:58:52;;;;;;;;;;;9.90;99.90;;;;;;4863651;29;19923;-87
2024/01/24 14:01:18;;;;;;;;;;;9.90;99.90;;;;;;4879826;29;19919;-88
2024/01/24 14:03:44;;;;;;;;;;;9.90;99.90;;;;;;4864373;29;19927;-88
2024/01/24 14:06:09;;;;;;;;;;;9.70;99.90;;;;;;4863628;29;19999;-87
2024/01/24 14:08:37;;;;;;;;;;;9.60;99.90;;;;;;4867347;29;19916;-87
2024/01/24 14:11:10;;;;;;;;;;;9.60;99.90;;;;;;4867194;29;19975;-87
2024/01/24 14:13:37;;;;;;;;;;;9.50;99.90;;;;;;4868558;29;19923;-87
2024/01/24 14:16:03;;;;;;;;;;;9.60;99.90;;;;;;4852567;29;19915;-87
2024/01/24 14:18:29;;;;;;;;;;;9.50;99.90;;;;;;4868670;29;20337;-87
2024/01/24 14:20:54;;;;;;;;;;;9.60;99.90;;;;;;4868243;29;19918;-88
2024/01/24 14:23:20;;;;;;;;;;;9.70;99.90;;;;;;4868607;29;19943;-89